Latest METARs, TAFs and NOTAMs for CYFB


---------------------------------------------------------------------------
	(OBSERVATIONS)
CYFB 212200Z 14009KT 30SM FEW025 BKN042 02/M00 A2997 RMK SF1SC7
    SF TR SLP152=
CYFB 212100Z 14008KT 30SM BKN042 03/M00 A2998 RMK SC7 SLP157=
---------------------------------------------------------------------------
	(FC)
Sorry, FC For CYFB Not Found
---------------------------------------------------------------------------
	(TERMINAL AREA FORECAST)
CYFB 211738Z 2118/2218 15008KT P6SM BKN030
    TEMPO 2118/2203 P6SM -DZ BKN020 OVC030
    FM220300 VRB03KT P6SM SCT008 BKN025
    TEMPO 2203/2209 P6SM -RASN BKN008 OVC020
    BECMG 2204/2206 33008KT
    FM220900 33008KT P6SM SCT008
    TEMPO 2209/2212 BKN008
    BECMG 2213/2215 34015KT
    RMK NXT FCST BY 220000Z=
---------------------------------------------------------------------------
	(NOTAMS)


CYFB 05/023 CYFB AMEND PUB: NEW MET TOWER 634455N 682448W (APRX
    3.8 NM SE AD) 197 FT AGL 1027 MSL. NOT LGTD, PAINTED. 16
    MAY 18:25 2017 UNTIL PERM. CREATED: 16 MAY 18:25 2017

CYFB 07/090 YFB- FROBAY VOR 117.4 UNMONITORED. 26 JUL 22:43 2017
    UNTIL 26 OCT 23:59 2017. CREATED: 26 JUL 22:46 2017

CYFB 08/051 CYFB TWY EDGE LGT E U/S. 31 AUG 14:46 2017 UNTIL
    01 NOV 23:59 2017. CREATED: 31 AUG 14:47 2017

CYFB 09/023 CYFB QUEBEC RDO RCO 123.275 AND 126.7 U/S. 21 SEP
    20:56 2017 UNTIL 22 SEP 23:59 2017. CREATED: 21 SEP 20:57
    2017

CYFB B2335/17 AMEND PUB: NEW MET TOWER 634455N 682448W (APRX
    3.8 NM SE AD) 197 FT AGL 1027 MSL. NOT LGTD, PAINTED. 16
    MAY 18:25 2017 UNTIL PERM. CREATED: 16 MAY 18:26 2017

CYFB B4360/17 TWY EDGE LGT E U/S. 31 AUG 14:46 2017 UNTIL 01
    NOV 23:59 2017. CREATED: 31 AUG 14:48 2017

---------------------------------------------------------------------------